sensor_id;sensor_type;location;lat;lon;timestamp;P1;durP1;ratioP1;P2;durP2;ratioP2
29500;SDS011;16450;50.288;10.966;2024-01-15T00:02:22;57.13;;;20.97;;
29500;SDS011;16450;50.288;10.966;2024-01-15T00:05:24;53.70;;;20.33;;
29500;SDS011;16450;50.288;10.966;2024-01-15T00:08:26;51.43;;;20.70;;
29500;SDS011;16450;50.288;10.966;2024-01-15T00:11:28;50.50;;;21.53;;
29500;SDS011;16450;50.288;10.966;2024-01-15T00:14:30;54.80;;;21.30;;
29500;SDS011;16450;50.288;10.966;2024-01-15T00:17:32;59.37;;;23.20;;
29500;SDS011;16450;50.288;10.966;2024-01-15T00:20:34;60.23;;;22.13;;
29500;SDS011;16450;50.288;10.966;2024-01-15T00:23:36;60.37;;;22.83;;
29500;SDS011;16450;50.288;10.966;2024-01-15T00:26:37;54.77;;;23.33;;
29500;SDS011;16450;50.288;10.966;2024-01-15T00:29:39;56.87;;;22.93;;
29500;SDS011;16450;50.288;10.966;2024-01-15T00:32:41;62.23;;;25.00;;
29500;SDS011;16450;50.288;10.966;2024-01-15T00:35:43;61.23;;;24.37;;
29500;SDS011;16450;50.288;10.966;2024-01-15T00:38:45;62.93;;;24.17;;
29500;SDS011;16450;50.288;10.966;2024-01-15T00:41:48;64.50;;;24.63;;
29500;SDS011;16450;50.288;10.966;2024-01-15T00:44:50;68.93;;;24.97;;
29500;SDS011;16450;50.288;10.966;2024-01-15T00:47:52;66.23;;;23.83;;
29500;SDS011;16450;50.288;10.966;2024-01-15T00:50:54;66.87;;;24.57;;
29500;SDS011;16450;50.288;10.966;2024-01-15T00:53:56;64.00;;;23.60;;
29500;SDS011;16450;50.288;10.966;2024-01-15T00:56:58;60.70;;;23.30;;
29500;SDS011;16450;50.288;10.966;2024-01-15T00:59:59;60.13;;;23.77;;
29500;SDS011;16450;50.288;10.966;2024-01-15T01:03:05;60.40;;;22.27;;
29500;SDS011;16450;50.288;10.966;2024-01-15T01:06:07;60.73;;;22.50;;
29500;SDS011;16450;50.288;10.966;2024-01-15T01:09:09;55.77;;;22.10;;
29500;SDS011;16450;50.288;10.966;2024-01-15T01:12:12;59.30;;;22.13;;
29500;SDS011;16450;50.288;10.966;2024-01-15T01:15:14;55.17;;;21.60;;
29500;SDS011;16450;50.288;10.966;2024-01-15T01:18:16;55.00;;;20.17;;
29500;SDS011;16450;50.288;10.966;2024-01-15T01:21:18;53.80;;;20.30;;
29500;SDS011;16450;50.288;10.966;2024-01-15T01:24:20;54.20;;;19.83;;
29500;SDS011;16450;50.288;10.966;2024-01-15T01:27:22;51.33;;;19.60;;
29500;SDS011;16450;50.288;10.966;2024-01-15T01:30:24;47.40;;;18.93;;
29500;SDS011;16450;50.288;10.966;2024-01-15T01:33:26;54.43;;;18.77;;
29500;SDS011;16450;50.288;10.966;2024-01-15T01:36:28;47.27;;;18.30;;
29500;SDS011;16450;50.288;10.966;2024-01-15T01:39:32;44.30;;;17.63;;
29500;SDS011;16450;50.288;10.966;2024-01-15T01:42:34;44.47;;;17.30;;
29500;SDS011;16450;50.288;10.966;2024-01-15T01:45:36;45.87;;;17.37;;
29500;SDS011;16450;50.288;10.966;2024-01-15T01:48:40;47.43;;;17.13;;
29500;SDS011;16450;50.288;10.966;2024-01-15T01:51:42;43.63;;;17.40;;
29500;SDS011;16450;50.288;10.966;2024-01-15T01:54:44;45.73;;;18.80;;
29500;SDS011;16450;50.288;10.966;2024-01-15T01:57:46;45.53;;;17.53;;
29500;SDS011;16450;50.288;10.966;2024-01-15T02:00:48;45.23;;;17.33;;
29500;SDS011;16450;50.288;10.966;2024-01-15T02:03:51;46.97;;;17.63;;
29500;SDS011;16450;50.288;10.966;2024-01-15T02:06:53;42.90;;;17.47;;
29500;SDS011;16450;50.288;10.966;2024-01-15T02:09:55;42.90;;;16.70;;
29500;SDS011;16450;50.288;10.966;2024-01-15T02:12:57;47.57;;;17.60;;
29500;SDS011;16450;50.288;10.966;2024-01-15T02:15:59;40.47;;;17.23;;
29500;SDS011;16450;50.288;10.966;2024-01-15T02:19:01;45.70;;;17.10;;
29500;SDS011;16450;50.288;10.966;2024-01-15T02:22:02;46.07;;;18.57;;
29500;SDS011;16450;50.288;10.966;2024-01-15T02:25:04;41.43;;;17.00;;
29500;SDS011;16450;50.288;10.966;2024-01-15T02:28:10;45.43;;;17.23;;
29500;SDS011;16450;50.288;10.966;2024-01-15T02:31:14;42.03;;;17.27;;
29500;SDS011;16450;50.288;10.966;2024-01-15T02:34:16;45.50;;;16.93;;
29500;SDS011;16450;50.288;10.966;2024-01-15T02:37:18;48.90;;;18.10;;
29500;SDS011;16450;50.288;10.966;2024-01-15T02:40:19;44.03;;;17.50;;
29500;SDS011;16450;50.288;10.966;2024-01-15T02:43:21;41.40;;;16.67;;
29500;SDS011;16450;50.288;10.966;2024-01-15T02:46:23;46.43;;;17.33;;
29500;SDS011;16450;50.288;10.966;2024-01-15T02:49:25;44.57;;;18.63;;
29500;SDS011;16450;50.288;10.966;2024-01-15T02:52:27;39.67;;;16.73;;
29500;SDS011;16450;50.288;10.966;2024-01-15T02:55:29;43.83;;;17.03;;
29500;SDS011;16450;50.288;10.966;2024-01-15T02:58:31;44.23;;;18.13;;
29500;SDS011;16450;50.288;10.966;2024-01-15T03:01:32;44.37;;;17.70;;
29500;SDS011;16450;50.288;10.966;2024-01-15T03:04:34;43.90;;;17.20;;
29500;SDS011;16450;50.288;10.966;2024-01-15T03:07:36;44.33;;;18.20;;
29500;SDS011;16450;50.288;10.966;2024-01-15T03:10:38;47.37;;;16.97;;
29500;SDS011;16450;50.288;10.966;2024-01-15T03:13:40;39.60;;;15.97;;
29500;SDS011;16450;50.288;10.966;2024-01-15T03:16:42;40.03;;;17.33;;
29500;SDS011;16450;50.288;10.966;2024-01-15T03:19:44;39.93;;;17.00;;
29500;SDS011;16450;50.288;10.966;2024-01-15T03:22:46;41.70;;;16.53;;
29500;SDS011;16450;50.288;10.966;2024-01-15T03:25:48;42.70;;;16.70;;
29500;SDS011;16450;50.288;10.966;2024-01-15T03:28:50;46.57;;;16.77;;
29500;SDS011;16450;50.288;10.966;2024-01-15T03:31:53;45.07;;;16.63;;
29500;SDS011;16450;50.288;10.966;2024-01-15T03:34:55;37.63;;;15.67;;
29500;SDS011;16450;50.288;10.966;2024-01-15T03:37:56;43.47;;;16.30;;
29500;SDS011;16450;50.288;10.966;2024-01-15T03:40:58;35.17;;;15.37;;
29500;SDS011;16450;50.288;10.966;2024-01-15T03:44:00;38.30;;;16.53;;
29500;SDS011;16450;50.288;10.966;2024-01-15T03:47:02;40.53;;;16.50;;
29500;SDS011;16450;50.288;10.966;2024-01-15T03:50:04;42.10;;;16.67;;
29500;SDS011;16450;50.288;10.966;2024-01-15T03:53:07;34.47;;;14.90;;
29500;SDS011;16450;50.288;10.966;2024-01-15T03:56:09;38.83;;;15.73;;
29500;SDS011;16450;50.288;10.966;2024-01-15T03:59:10;33.77;;;14.97;;
29500;SDS011;16450;50.288;10.966;2024-01-15T04:02:12;35.13;;;14.20;;
29500;SDS011;16450;50.288;10.966;2024-01-15T04:05:18;35.80;;;14.27;;
29500;SDS011;16450;50.288;10.966;2024-01-15T04:08:19;36.63;;;14.53;;
29500;SDS011;16450;50.288;10.966;2024-01-15T04:11:21;31.90;;;14.17;;
29500;SDS011;16450;50.288;10.966;2024-01-15T04:14:23;29.67;;;13.40;;
29500;SDS011;16450;50.288;10.966;2024-01-15T04:17:26;32.73;;;14.50;;
29500;SDS011;16450;50.288;10.966;2024-01-15T04:20:29;37.60;;;14.20;;
29500;SDS011;16450;50.288;10.966;2024-01-15T04:23:31;32.97;;;13.43;;
29500;SDS011;16450;50.288;10.966;2024-01-15T04:26:33;32.40;;;14.10;;
29500;SDS011;16450;50.288;10.966;2024-01-15T04:29:37;35.80;;;14.23;;
29500;SDS011;16450;50.288;10.966;2024-01-15T04:32:42;35.20;;;13.87;;
29500;SDS011;16450;50.288;10.966;2024-01-15T04:35:44;32.57;;;13.87;;
29500;SDS011;16450;50.288;10.966;2024-01-15T04:38:45;31.37;;;13.73;;
29500;SDS011;16450;50.288;10.966;2024-01-15T04:41:47;33.40;;;14.00;;
29500;SDS011;16450;50.288;10.966;2024-01-15T04:44:49;33.00;;;13.97;;
29500;SDS011;16450;50.288;10.966;2024-01-15T04:47:51;32.40;;;13.03;;
29500;SDS011;16450;50.288;10.966;2024-01-15T04:50:53;34.27;;;14.37;;
29500;SDS011;16450;50.288;10.966;2024-01-15T04:53:55;37.87;;;14.20;;
29500;SDS011;16450;50.288;10.966;2024-01-15T04:56:57;29.77;;;13.53;;
29500;SDS011;16450;50.288;10.966;2024-01-15T04:59:59;35.40;;;13.83;;
29500;SDS011;16450;50.288;10.966;2024-01-15T05:03:00;29.87;;;13.03;;
29500;SDS011;16450;50.288;10.966;2024-01-15T05:06:02;32.27;;;12.50;;
29500;SDS011;16450;50.288;10.966;2024-01-15T05:09:05;30.37;;;13.00;;
29500;SDS011;16450;50.288;10.966;2024-01-15T05:12:07;29.77;;;12.27;;
29500;SDS011;16450;50.288;10.966;2024-01-15T05:15:09;31.23;;;12.77;;
29500;SDS011;16450;50.288;10.966;2024-01-15T05:18:11;29.17;;;13.20;;
29500;SDS011;16450;50.288;10.966;2024-01-15T05:21:13;28.40;;;12.77;;
29500;SDS011;16450;50.288;10.966;2024-01-15T05:24:15;28.97;;;12.07;;
29500;SDS011;16450;50.288;10.966;2024-01-15T05:27:17;29.40;;;12.60;;
29500;SDS011;16450;50.288;10.966;2024-01-15T05:30:19;29.03;;;12.00;;
29500;SDS011;16450;50.288;10.966;2024-01-15T05:33:22;26.40;;;12.27;;
29500;SDS011;16450;50.288;10.966;2024-01-15T05:36:24;29.60;;;13.03;;
29500;SDS011;16450;50.288;10.966;2024-01-15T05:39:26;28.13;;;12.07;;
29500;SDS011;16450;50.288;10.966;2024-01-15T05:42:28;26.93;;;11.77;;
29500;SDS011;16450;50.288;10.966;2024-01-15T05:45:31;30.40;;;12.57;;
29500;SDS011;16450;50.288;10.966;2024-01-15T05:48:38;27.30;;;12.53;;
29500;SDS011;16450;50.288;10.966;2024-01-15T05:51:40;28.93;;;12.03;;
29500;SDS011;16450;50.288;10.966;2024-01-15T05:54:42;28.10;;;12.03;;
29500;SDS011;16450;50.288;10.966;2024-01-15T05:57:44;25.93;;;12.03;;
29500;SDS011;16450;50.288;10.966;2024-01-15T06:00:46;23.00;;;11.27;;
29500;SDS011;16450;50.288;10.966;2024-01-15T06:03:49;26.87;;;11.20;;
29500;SDS011;16450;50.288;10.966;2024-01-15T06:06:51;26.00;;;11.83;;
29500;SDS011;16450;50.288;10.966;2024-01-15T06:09:54;28.03;;;12.70;;
29500;SDS011;16450;50.288;10.966;2024-01-15T06:12:56;25.73;;;11.47;;
29500;SDS011;16450;50.288;10.966;2024-01-15T06:15:58;26.03;;;11.80;;
29500;SDS011;16450;50.288;10.966;2024-01-15T06:18:59;24.03;;;11.60;;
29500;SDS011;16450;50.288;10.966;2024-01-15T06:22:01;25.40;;;11.70;;
29500;SDS011;16450;50.288;10.966;2024-01-15T06:25:04;25.47;;;11.43;;
29500;SDS011;16450;50.288;10.966;2024-01-15T06:28:07;28.60;;;11.87;;
29500;SDS011;16450;50.288;10.966;2024-01-15T06:31:10;26.97;;;11.73;;
29500;SDS011;16450;50.288;10.966;2024-01-15T06:34:12;28.67;;;12.07;;
29500;SDS011;16450;50.288;10.966;2024-01-15T06:37:14;25.37;;;11.20;;
29500;SDS011;16450;50.288;10.966;2024-01-15T06:40:16;26.60;;;10.93;;
29500;SDS011;16450;50.288;10.966;2024-01-15T06:43:18;25.53;;;11.13;;
29500;SDS011;16450;50.288;10.966;2024-01-15T06:46:23;23.23;;;11.33;;
29500;SDS011;16450;50.288;10.966;2024-01-15T06:49:24;24.07;;;11.13;;
29500;SDS011;16450;50.288;10.966;2024-01-15T06:52:26;26.13;;;11.20;;
29500;SDS011;16450;50.288;10.966;2024-01-15T06:55:28;24.73;;;11.53;;
29500;SDS011;16450;50.288;10.966;2024-01-15T06:58:31;24.37;;;11.03;;
29500;SDS011;16450;50.288;10.966;2024-01-15T07:01:32;28.67;;;11.27;;
29500;SDS011;16450;50.288;10.966;2024-01-15T07:04:34;24.13;;;10.93;;
29500;SDS011;16450;50.288;10.966;2024-01-15T07:07:36;27.17;;;11.80;;
29500;SDS011;16450;50.288;10.966;2024-01-15T07:10:38;24.27;;;11.47;;
29500;SDS011;16450;50.288;10.966;2024-01-15T07:13:40;24.00;;;10.03;;
29500;SDS011;16450;50.288;10.966;2024-01-15T07:16:42;25.13;;;11.93;;
29500;SDS011;16450;50.288;10.966;2024-01-15T07:19:48;25.43;;;11.47;;
29500;SDS011;16450;50.288;10.966;2024-01-15T07:22:50;26.00;;;11.67;;
29500;SDS011;16450;50.288;10.966;2024-01-15T07:25:52;27.47;;;11.83;;
29500;SDS011;16450;50.288;10.966;2024-01-15T07:28:55;27.77;;;11.57;;
29500;SDS011;16450;50.288;10.966;2024-01-15T07:31:57;27.67;;;12.03;;
29500;SDS011;16450;50.288;10.966;2024-01-15T07:34:59;26.30;;;11.70;;
29500;SDS011;16450;50.288;10.966;2024-01-15T07:38:01;25.23;;;11.60;;
29500;SDS011;16450;50.288;10.966;2024-01-15T07:41:02;28.37;;;11.87;;
29500;SDS011;16450;50.288;10.966;2024-01-15T07:44:05;29.03;;;12.70;;
29500;SDS011;16450;50.288;10.966;2024-01-15T07:47:06;28.87;;;12.80;;
29500;SDS011;16450;50.288;10.966;2024-01-15T07:50:10;26.20;;;11.73;;
29500;SDS011;16450;50.288;10.966;2024-01-15T07:53:12;29.70;;;12.67;;
29500;SDS011;16450;50.288;10.966;2024-01-15T07:56:13;27.17;;;12.13;;
29500;SDS011;16450;50.288;10.966;2024-01-15T07:59:15;25.73;;;11.83;;
29500;SDS011;16450;50.288;10.966;2024-01-15T08:02:17;26.10;;;11.97;;
29500;SDS011;16450;50.288;10.966;2024-01-15T08:05:19;27.00;;;11.73;;
29500;SDS011;16450;50.288;10.966;2024-01-15T08:08:22;30.03;;;12.20;;
29500;SDS011;16450;50.288;10.966;2024-01-15T08:11:24;25.40;;;11.20;;
29500;SDS011;16450;50.288;10.966;2024-01-15T08:14:26;24.53;;;11.87;;
29500;SDS011;16450;50.288;10.966;2024-01-15T08:17:27;28.00;;;11.47;;
29500;SDS011;16450;50.288;10.966;2024-01-15T08:20:30;28.70;;;11.90;;
29500;SDS011;16450;50.288;10.966;2024-01-15T08:23:34;27.50;;;11.70;;
29500;SDS011;16450;50.288;10.966;2024-01-15T08:26:35;22.50;;;10.90;;
29500;SDS011;16450;50.288;10.966;2024-01-15T08:29:37;25.03;;;11.60;;
29500;SDS011;16450;50.288;10.966;2024-01-15T08:32:39;28.00;;;12.23;;
29500;SDS011;16450;50.288;10.966;2024-01-15T08:35:44;27.03;;;11.93;;
29500;SDS011;16450;50.288;10.966;2024-01-15T08:38:46;23.90;;;10.80;;
29500;SDS011;16450;50.288;10.966;2024-01-15T08:41:48;22.60;;;10.93;;
29500;SDS011;16450;50.288;10.966;2024-01-15T08:44:50;22.70;;;10.43;;
29500;SDS011;16450;50.288;10.966;2024-01-15T08:48:09;26.13;;;11.33;;
29500;SDS011;16450;50.288;10.966;2024-01-15T08:51:14;24.37;;;11.37;;
29500;SDS011;16450;50.288;10.966;2024-01-15T08:54:16;21.63;;;11.00;;
29500;SDS011;16450;50.288;10.966;2024-01-15T08:57:19;25.77;;;11.97;;
29500;SDS011;16450;50.288;10.966;2024-01-15T09:00:21;21.80;;;10.60;;
29500;SDS011;16450;50.288;10.966;2024-01-15T09:03:23;25.70;;;11.33;;
29500;SDS011;16450;50.288;10.966;2024-01-15T09:06:24;21.17;;;10.83;;
29500;SDS011;16450;50.288;10.966;2024-01-15T09:09:26;26.53;;;11.97;;
29500;SDS011;16450;50.288;10.966;2024-01-15T09:12:28;24.20;;;11.40;;
29500;SDS011;16450;50.288;10.966;2024-01-15T09:15:30;25.50;;;12.03;;
29500;SDS011;16450;50.288;10.966;2024-01-15T09:18:32;25.87;;;11.10;;
29500;SDS011;16450;50.288;10.966;2024-01-15T09:21:34;23.17;;;10.67;;
29500;SDS011;16450;50.288;10.966;2024-01-15T09:24:36;23.53;;;10.33;;
29500;SDS011;16450;50.288;10.966;2024-01-15T09:27:38;20.40;;;10.10;;
29500;SDS011;16450;50.288;10.966;2024-01-15T09:30:40;22.37;;;10.60;;
29500;SDS011;16450;50.288;10.966;2024-01-15T09:33:42;20.37;;;10.17;;
29500;SDS011;16450;50.288;10.966;2024-01-15T09:36:45;25.37;;;11.07;;
29500;SDS011;16450;50.288;10.966;2024-01-15T09:39:47;21.57;;;10.77;;
29500;SDS011;16450;50.288;10.966;2024-01-15T09:42:50;23.67;;;10.73;;
29500;SDS011;16450;50.288;10.966;2024-01-15T09:45:53;21.33;;;10.23;;
29500;SDS011;16450;50.288;10.966;2024-01-15T09:48:55;23.83;;;11.27;;
29500;SDS011;16450;50.288;10.966;2024-01-15T09:51:58;20.87;;;9.83;;
29500;SDS011;16450;50.288;10.966;2024-01-15T09:55:12;23.13;;;9.77;;
29500;SDS011;16450;50.288;10.966;2024-01-15T09:58:15;23.97;;;10.53;;
29500;SDS011;16450;50.288;10.966;2024-01-15T10:01:16;18.73;;;9.30;;
29500;SDS011;16450;50.288;10.966;2024-01-15T10:04:18;23.87;;;10.17;;
29500;SDS011;16450;50.288;10.966;2024-01-15T10:07:20;22.73;;;9.53;;
29500;SDS011;16450;50.288;10.966;2024-01-15T10:10:24;19.33;;;9.30;;
29500;SDS011;16450;50.288;10.966;2024-01-15T10:13:26;20.63;;;9.33;;
29500;SDS011;16450;50.288;10.966;2024-01-15T10:16:28;18.63;;;8.70;;
29500;SDS011;16450;50.288;10.966;2024-01-15T10:19:30;21.17;;;9.17;;
29500;SDS011;16450;50.288;10.966;2024-01-15T10:22:32;21.47;;;9.73;;
29500;SDS011;16450;50.288;10.966;2024-01-15T10:25:35;20.87;;;10.10;;
29500;SDS011;16450;50.288;10.966;2024-01-15T10:28:36;20.27;;;9.83;;
29500;SDS011;16450;50.288;10.966;2024-01-15T10:31:38;19.90;;;9.97;;
29500;SDS011;16450;50.288;10.966;2024-01-15T10:34:40;18.63;;;9.23;;
29500;SDS011;16450;50.288;10.966;2024-01-15T10:37:43;21.77;;;10.50;;
29500;SDS011;16450;50.288;10.966;2024-01-15T10:40:45;22.17;;;11.10;;
29500;SDS011;16450;50.288;10.966;2024-01-15T10:43:47;25.03;;;10.67;;
29500;SDS011;16450;50.288;10.966;2024-01-15T10:46:49;25.90;;;10.77;;
29500;SDS011;16450;50.288;10.966;2024-01-15T10:49:51;20.47;;;9.73;;
29500;SDS011;16450;50.288;10.966;2024-01-15T10:52:54;20.70;;;10.53;;
29500;SDS011;16450;50.288;10.966;2024-01-15T10:55:57;20.60;;;9.87;;
29500;SDS011;16450;50.288;10.966;2024-01-15T10:58:59;20.50;;;9.53;;
29500;SDS011;16450;50.288;10.966;2024-01-15T11:02:02;24.63;;;11.13;;
29500;SDS011;16450;50.288;10.966;2024-01-15T11:05:05;27.13;;;11.37;;
29500;SDS011;16450;50.288;10.966;2024-01-15T11:08:08;23.43;;;11.43;;
29500;SDS011;16450;50.288;10.966;2024-01-15T11:11:10;21.90;;;10.63;;
29500;SDS011;16450;50.288;10.966;2024-01-15T11:17:58;24.27;;;10.97;;
29500;SDS011;16450;50.288;10.966;2024-01-15T11:27:55;26.57;;;13.63;;
29500;SDS011;16450;50.288;10.966;2024-01-15T11:30:58;26.70;;;12.27;;
29500;SDS011;16450;50.288;10.966;2024-01-15T11:34:01;22.57;;;11.43;;
29500;SDS011;16450;50.288;10.966;2024-01-15T11:37:03;23.67;;;11.43;;
29500;SDS011;16450;50.288;10.966;2024-01-15T11:40:05;22.37;;;10.13;;
29500;SDS011;16450;50.288;10.966;2024-01-15T11:43:12;22.20;;;9.90;;
29500;SDS011;16450;50.288;10.966;2024-01-15T11:46:16;22.57;;;10.80;;
29500;SDS011;16450;50.288;10.966;2024-01-15T11:49:23;21.50;;;9.87;;
29500;SDS011;16450;50.288;10.966;2024-01-15T11:53:00;18.43;;;9.57;;
29500;SDS011;16450;50.288;10.966;2024-01-15T11:56:12;21.40;;;10.50;;
29500;SDS011;16450;50.288;10.966;2024-01-15T11:59:16;24.50;;;10.33;;
29500;SDS011;16450;50.288;10.966;2024-01-15T12:02:19;25.07;;;11.03;;
29500;SDS011;16450;50.288;10.966;2024-01-15T12:05:22;21.10;;;10.33;;
29500;SDS011;16450;50.288;10.966;2024-01-15T12:08:24;24.37;;;11.17;;
29500;SDS011;16450;50.288;10.966;2024-01-15T12:11:27;24.40;;;11.87;;
29500;SDS011;16450;50.288;10.966;2024-01-15T12:14:31;22.47;;;10.90;;
29500;SDS011;16450;50.288;10.966;2024-01-15T12:17:34;24.77;;;11.60;;
29500;SDS011;16450;50.288;10.966;2024-01-15T12:20:36;23.47;;;10.90;;
29500;SDS011;16450;50.288;10.966;2024-01-15T12:23:38;22.57;;;11.03;;
29500;SDS011;16450;50.288;10.966;2024-01-15T12:26:40;21.67;;;11.17;;
29500;SDS011;16450;50.288;10.966;2024-01-15T12:29:42;24.57;;;11.43;;
29500;SDS011;16450;50.288;10.966;2024-01-15T12:32:45;24.50;;;11.30;;
29500;SDS011;16450;50.288;10.966;2024-01-15T12:35:52;23.43;;;11.47;;
29500;SDS011;16450;50.288;10.966;2024-01-15T12:38:58;23.67;;;10.97;;
29500;SDS011;16450;50.288;10.966;2024-01-15T12:42:01;24.10;;;11.27;;
29500;SDS011;16450;50.288;10.966;2024-01-15T12:45:05;22.87;;;11.30;;
29500;SDS011;16450;50.288;10.966;2024-01-15T12:48:07;22.03;;;11.07;;
29500;SDS011;16450;50.288;10.966;2024-01-15T12:51:09;28.33;;;12.57;;
29500;SDS011;16450;50.288;10.966;2024-01-15T12:54:11;24.97;;;11.83;;
29500;SDS011;16450;50.288;10.966;2024-01-15T12:57:13;21.53;;;10.53;;
29500;SDS011;16450;50.288;10.966;2024-01-15T13:00:16;20.00;;;10.13;;
29500;SDS011;16450;50.288;10.966;2024-01-15T13:03:18;22.20;;;10.60;;
29500;SDS011;16450;50.288;10.966;2024-01-15T13:06:20;22.20;;;10.07;;
29500;SDS011;16450;50.288;10.966;2024-01-15T13:09:21;21.53;;;10.27;;
29500;SDS011;16450;50.288;10.966;2024-01-15T13:12:23;21.27;;;10.37;;
29500;SDS011;16450;50.288;10.966;2024-01-15T13:15:25;22.83;;;10.27;;
29500;SDS011;16450;50.288;10.966;2024-01-15T13:18:28;19.67;;;9.90;;
29500;SDS011;16450;50.288;10.966;2024-01-15T13:21:30;18.73;;;9.00;;
29500;SDS011;16450;50.288;10.966;2024-01-15T13:24:32;21.57;;;9.70;;
29500;SDS011;16450;50.288;10.966;2024-01-15T13:27:34;21.20;;;10.00;;
29500;SDS011;16450;50.288;10.966;2024-01-15T13:30:41;20.53;;;9.77;;
29500;SDS011;16450;50.288;10.966;2024-01-15T13:33:44;18.53;;;9.27;;
29500;SDS011;16450;50.288;10.966;2024-01-15T13:36:46;22.37;;;9.73;;
29500;SDS011;16450;50.288;10.966;2024-01-15T13:39:48;18.87;;;9.90;;
29500;SDS011;16450;50.288;10.966;2024-01-15T13:42:50;18.53;;;9.70;;
29500;SDS011;16450;50.288;10.966;2024-01-15T13:45:54;18.47;;;9.73;;
29500;SDS011;16450;50.288;10.966;2024-01-15T13:48:56;21.53;;;10.57;;
29500;SDS011;16450;50.288;10.966;2024-01-15T13:51:58;21.83;;;9.93;;
29500;SDS011;16450;50.288;10.966;2024-01-15T13:54:59;20.70;;;9.90;;
29500;SDS011;16450;50.288;10.966;2024-01-15T13:58:04;22.10;;;11.67;;
29500;SDS011;16450;50.288;10.966;2024-01-15T14:01:07;21.30;;;10.43;;
29500;SDS011;16450;50.288;10.966;2024-01-15T14:04:09;24.17;;;10.57;;
29500;SDS011;16450;50.288;10.966;2024-01-15T14:07:11;22.20;;;11.80;;
29500;SDS011;16450;50.288;10.966;2024-01-15T14:10:13;23.03;;;11.10;;
29500;SDS011;16450;50.288;10.966;2024-01-15T14:13:15;24.13;;;11.17;;
29500;SDS011;16450;50.288;10.966;2024-01-15T14:16:17;25.03;;;10.67;;
29500;SDS011;16450;50.288;10.966;2024-01-15T14:19:25;20.63;;;10.43;;
29500;SDS011;16450;50.288;10.966;2024-01-15T14:22:28;27.57;;;10.97;;
29500;SDS011;16450;50.288;10.966;2024-01-15T14:25:30;22.43;;;11.47;;
29500;SDS011;16450;50.288;10.966;2024-01-15T14:28:32;24.23;;;11.50;;
29500;SDS011;16450;50.288;10.966;2024-01-15T14:31:34;22.87;;;11.00;;
29500;SDS011;16450;50.288;10.966;2024-01-15T14:34:37;20.50;;;10.17;;
29500;SDS011;16450;50.288;10.966;2024-01-15T14:37:39;24.03;;;10.37;;
29500;SDS011;16450;50.288;10.966;2024-01-15T14:40:41;21.50;;;11.60;;
29500;SDS011;16450;50.288;10.966;2024-01-15T14:43:43;21.00;;;10.63;;
29500;SDS011;16450;50.288;10.966;2024-01-15T14:46:46;19.77;;;10.07;;
29500;SDS011;16450;50.288;10.966;2024-01-15T14:49:48;22.67;;;10.87;;
29500;SDS011;16450;50.288;10.966;2024-01-15T14:52:49;18.90;;;10.13;;
29500;SDS011;16450;50.288;10.966;2024-01-15T14:55:51;18.87;;;9.27;;
29500;SDS011;16450;50.288;10.966;2024-01-15T14:58:55;22.10;;;10.27;;
29500;SDS011;16450;50.288;10.966;2024-01-15T15:01:57;20.47;;;9.87;;
29500;SDS011;16450;50.288;10.966;2024-01-15T15:04:58;18.37;;;9.13;;
29500;SDS011;16450;50.288;10.966;2024-01-15T15:08:01;17.83;;;9.27;;
29500;SDS011;16450;50.288;10.966;2024-01-15T15:11:06;17.20;;;8.20;;
29500;SDS011;16450;50.288;10.966;2024-01-15T15:14:07;19.87;;;8.87;;
29500;SDS011;16450;50.288;10.966;2024-01-15T15:17:10;19.33;;;9.27;;
29500;SDS011;16450;50.288;10.966;2024-01-15T15:20:13;18.23;;;10.50;;
29500;SDS011;16450;50.288;10.966;2024-01-15T15:23:15;21.10;;;13.43;;
29500;SDS011;16450;50.288;10.966;2024-01-15T15:26:18;21.83;;;12.87;;
29500;SDS011;16450;50.288;10.966;2024-01-15T15:29:20;16.63;;;8.67;;
29500;SDS011;16450;50.288;10.966;2024-01-15T15:32:23;18.77;;;10.30;;
29500;SDS011;16450;50.288;10.966;2024-01-15T15:35:25;15.87;;;8.53;;
29500;SDS011;16450;50.288;10.966;2024-01-15T15:38:27;16.70;;;9.20;;
29500;SDS011;16450;50.288;10.966;2024-01-15T15:41:29;15.60;;;8.73;;
29500;SDS011;16450;50.288;10.966;2024-01-15T15:44:32;16.60;;;8.90;;
29500;SDS011;16450;50.288;10.966;2024-01-15T15:47:34;14.90;;;7.80;;
29500;SDS011;16450;50.288;10.966;2024-01-15T15:50:36;14.23;;;7.77;;
29500;SDS011;16450;50.288;10.966;2024-01-15T15:53:38;15.00;;;7.97;;
29500;SDS011;16450;50.288;10.966;2024-01-15T15:56:41;14.60;;;7.67;;
29500;SDS011;16450;50.288;10.966;2024-01-15T15:59:48;14.33;;;7.87;;
29500;SDS011;16450;50.288;10.966;2024-01-15T16:02:50;13.93;;;7.97;;
29500;SDS011;16450;50.288;10.966;2024-01-15T16:05:52;14.40;;;7.53;;
29500;SDS011;16450;50.288;10.966;2024-01-15T16:08:54;16.10;;;7.90;;
29500;SDS011;16450;50.288;10.966;2024-01-15T16:11:57;17.17;;;8.00;;
29500;SDS011;16450;50.288;10.966;2024-01-15T16:15:00;17.83;;;8.20;;
29500;SDS011;16450;50.288;10.966;2024-01-15T16:18:05;16.30;;;8.47;;
29500;SDS011;16450;50.288;10.966;2024-01-15T16:21:27;16.20;;;8.13;;
29500;SDS011;16450;50.288;10.966;2024-01-15T16:24:48;14.67;;;7.93;;
29500;SDS011;16450;50.288;10.966;2024-01-15T16:27:54;14.23;;;7.27;;
29500;SDS011;16450;50.288;10.966;2024-01-15T16:30:57;18.33;;;10.17;;
29500;SDS011;16450;50.288;10.966;2024-01-15T16:34:05;20.70;;;9.63;;
29500;SDS011;16450;50.288;10.966;2024-01-15T16:37:11;18.67;;;9.23;;
29500;SDS011;16450;50.288;10.966;2024-01-15T16:40:13;16.20;;;9.30;;
29500;SDS011;16450;50.288;10.966;2024-01-15T16:43:15;18.63;;;8.83;;
29500;SDS011;16450;50.288;10.966;2024-01-15T16:46:17;18.57;;;8.57;;
29500;SDS011;16450;50.288;10.966;2024-01-15T16:49:19;19.40;;;8.80;;
29500;SDS011;16450;50.288;10.966;2024-01-15T16:52:21;18.13;;;9.47;;
29500;SDS011;16450;50.288;10.966;2024-01-15T16:55:24;17.70;;;8.97;;
29500;SDS011;16450;50.288;10.966;2024-01-15T16:58:26;17.90;;;9.13;;
29500;SDS011;16450;50.288;10.966;2024-01-15T17:01:28;17.77;;;8.90;;
29500;SDS011;16450;50.288;10.966;2024-01-15T17:04:30;20.53;;;9.93;;
29500;SDS011;16450;50.288;10.966;2024-01-15T17:07:32;19.50;;;10.30;;
29500;SDS011;16450;50.288;10.966;2024-01-15T17:10:34;16.33;;;9.17;;
29500;SDS011;16450;50.288;10.966;2024-01-15T17:13:36;18.07;;;9.23;;
29500;SDS011;16450;50.288;10.966;2024-01-15T17:16:38;16.93;;;8.70;;
29500;SDS011;16450;50.288;10.966;2024-01-15T17:19:39;16.90;;;8.20;;
29500;SDS011;16450;50.288;10.966;2024-01-15T17:22:41;13.83;;;7.70;;
29500;SDS011;16450;50.288;10.966;2024-01-15T17:25:43;12.97;;;6.90;;
29500;SDS011;16450;50.288;10.966;2024-01-15T17:28:45;16.93;;;8.60;;
29500;SDS011;16450;50.288;10.966;2024-01-15T17:31:48;13.77;;;7.60;;
29500;SDS011;16450;50.288;10.966;2024-01-15T17:34:49;12.90;;;7.70;;
29500;SDS011;16450;50.288;10.966;2024-01-15T17:37:51;14.90;;;8.13;;
29500;SDS011;16450;50.288;10.966;2024-01-15T17:40:53;13.37;;;7.93;;
29500;SDS011;16450;50.288;10.966;2024-01-15T17:43:55;12.33;;;6.73;;
29500;SDS011;16450;50.288;10.966;2024-01-15T17:46:57;11.70;;;6.80;;